Time;durP1;ratioP1;P1;durP2;ratioP2;P2;SDS_P1;SDS_P2;PMS_P1;PMS_P2;Temp;Humidity;BMP_temperature;BMP_pressure;BME280_temperature;BME280_humidity;BME280_pressure;Samples;Min_cycle;Max_cycle;Signal;HPM_P1;HPM_P2
2023/10/15 00:00:26;;;;;;;1.40;1.00;;;;;;;6.13;100.00;100764.88;4971772;28;20200;-70
2023/10/15 00:02:53;;;;;;;1.63;1.13;;;;;;;6.16;100.00;100759.75;4971425;28;20259;-70
2023/10/15 00:05:22;;;;;;;3.63;1.30;;;;;;;6.08;100.00;100769.09;4971207;28;20601;-70
2023/10/15 00:07:50;;;;;;;2.10;1.40;;;;;;;6.27;100.00;100768.91;4956797;28;20221;-70
2023/10/15 00:10:22;;;;;;;2.53;1.20;;;;;;;6.11;100.00;100766.56;4971444;28;20602;-70
2023/10/15 00:12:50;;;;;;;4.37;1.30;;;;;;;6.19;100.00;100767.75;4971558;28;20209;-70
2023/10/15 00:15:23;;;;;;;5.90;1.43;;;;;;;6.15;100.00;100771.09;4969916;28;20247;-69
2023/10/15 00:17:53;;;;;;;3.17;1.00;;;;;;;6.24;100.00;100762.66;4971078;28;20208;-69
2023/10/15 00:20:26;;;;;;;3.67;1.30;;;;;;;6.16;100.00;100765.00;4971461;28;20603;-69
2023/10/15 00:22:52;;;;;;;3.53;1.27;;;;;;;6.22;100.00;100770.47;4965902;28;20304;-69
2023/10/15 00:25:22;;;;;;;5.33;1.50;;;;;;;6.15;100.00;100765.84;4964825;28;20267;-69
2023/10/15 00:27:52;;;;;;;4.73;1.33;;;;;;;5.98;100.00;100772.19;4970855;28;20212;-69
2023/10/15 00:30:20;;;;;;;2.20;1.40;;;;;;;5.85;100.00;100765.53;4971050;28;20285;-69
2023/10/15 00:32:52;;;;;;;3.70;1.50;;;;;;;5.74;100.00;100768.59;4969682;28;20577;-69
2023/10/15 00:35:19;;;;;;;3.83;1.70;;;;;;;5.60;100.00;100766.34;4971213;28;20245;-69
2023/10/15 00:37:54;;;;;;;4.53;1.70;;;;;;;5.51;100.00;100770.31;4971351;28;20233;-70
2023/10/15 00:40:23;;;;;;;3.77;1.63;;;;;;;5.43;100.00;100767.38;4970937;28;20212;-70
2023/10/15 00:42:49;;;;;;;5.67;1.33;;;;;;;5.31;100.00;100772.16;4955263;28;20286;-70
2023/10/15 00:45:18;;;;;;;5.90;1.50;;;;;;;5.37;100.00;100769.78;4970933;28;20230;-70
2023/10/15 00:48:00;;;;;;;2.20;1.10;;;;;;;5.34;100.00;100767.03;4970649;28;20208;-70
2023/10/15 00:50:38;;;;;;;5.40;1.60;;;;;;;5.27;100.00;100767.63;4969460;28;20258;-69
2023/10/15 00:53:21;;;;;;;3.40;1.37;;;;;;;5.29;100.00;100769.47;4969304;28;20211;-69
2023/10/15 00:56:10;;;;;;;1.90;1.37;;;;;;;5.21;100.00;100770.91;4970228;28;20586;-70
2023/10/15 01:03:56;;;;;;;3.73;1.30;;;;;;;5.15;100.00;100765.38;4970116;28;20209;-70
2023/10/15 01:06:35;;;;;;;5.07;1.40;;;;;;;5.11;100.00;100762.56;4964572;28;20221;-69
2023/10/15 01:09:10;;;;;;;3.13;1.20;;;;;;;4.98;100.00;100759.44;4969382;28;20203;-69
2023/10/15 01:11:50;;;;;;;5.17;1.40;;;;;;;4.86;100.00;100748.44;4970550;28;20284;-69
2023/10/15 01:14:38;;;;;;;3.57;1.17;;;;;;;4.89;100.00;100760.78;4955715;28;20205;-69
2023/10/15 01:17:04;;;;;;;1.70;1.07;;;;;;;4.89;100.00;100752.91;4964543;28;20211;-70
2023/10/15 01:19:33;;;;;;;5.23;1.47;;;;;;;4.80;100.00;100748.16;4966102;28;20201;-69
2023/10/15 01:22:04;;;;;;;7.10;1.43;;;;;;;4.84;100.00;100747.47;4964797;28;20221;-69
2023/10/15 01:24:38;;;;;;;2.73;1.10;;;;;;;4.83;100.00;100744.78;4962736;28;20233;-69
2023/10/15 01:29:42;;;;;;;3.70;1.73;;;;;;;4.85;100.00;100740.50;4964429;28;20705;-69
2023/10/15 01:32:19;;;;;;;3.07;1.47;;;;;;;4.75;100.00;100747.06;4969939;28;20679;-69
2023/10/15 01:34:45;;;;;;;2.37;1.30;;;;;;;4.60;100.00;100746.44;4970156;28;20206;-69
2023/10/15 01:37:24;;;;;;;2.30;1.40;;;;;;;4.53;100.00;100744.38;4969171;28;20209;-69
2023/10/15 01:40:00;;;;;;;6.00;1.20;;;;;;;4.42;100.00;100741.31;4970344;28;20202;-70
2023/10/15 01:45:13;;;;;;;1.47;1.10;;;;;;;4.25;100.00;100747.50;4970243;28;20241;-69
2023/10/15 01:48:04;;;;;;;4.13;1.27;;;;;;;4.25;100.00;100747.50;4966655;28;20205;-70
2023/10/15 01:50:41;;;;;;;3.07;1.50;;;;;;;4.27;100.00;100749.38;4964985;28;20249;-70
2023/10/15 01:53:07;;;;;;;1.80;1.17;;;;;;;4.30;100.00;100749.50;4971548;28;20696;-70
2023/10/15 01:55:35;;;;;;;2.27;1.10;;;;;;;4.37;100.00;100761.16;4969806;28;20267;-70
2023/10/15 01:58:04;;;;;;;6.23;1.80;;;;;;;4.59;100.00;100757.75;4973499;28;20216;-69
2023/10/15 02:00:38;;;;;;;7.40;1.87;;;;;;;4.57;100.00;100755.06;4974233;28;20207;-69
2023/10/15 02:03:06;;;;;;;1.93;0.97;;;;;;;4.77;100.00;100760.25;4966617;28;20240;-69
2023/10/15 02:05:43;;;;;;;6.37;1.23;;;;;;;4.92;100.00;100759.19;4974061;28;20232;-69
2023/10/15 02:08:13;;;;;;;1.40;1.17;;;;;;;4.98;100.00;100771.66;4973343;28;20235;-69
2023/10/15 02:10:46;;;;;;;3.17;1.20;;;;;;;5.06;100.00;100766.72;4970777;28;20226;-69
2023/10/15 02:13:15;;;;;;;3.03;1.60;;;;;;;5.20;100.00;100776.06;4972021;28;20214;-69
2023/10/15 02:15:43;;;;;;;2.73;1.57;;;;;;;5.23;100.00;100777.09;4973616;28;20232;-69
2023/10/15 02:18:14;;;;;;;2.40;1.20;;;;;;;5.23;100.00;100766.59;4973114;28;20576;-69
2023/10/15 02:23:11;;;;;;;4.63;1.60;;;;;;;5.35;100.00;100772.34;4973139;28;20752;-69
2023/10/15 02:25:52;;;;;;;6.83;1.87;;;;;;;5.37;100.00;100771.50;4972285;28;20230;-70
2023/10/15 02:28:25;;;;;;;6.73;1.10;;;;;;;5.51;100.00;100758.06;4970290;28;20216;-69
2023/10/15 02:31:10;;;;;;;4.70;1.73;;;;;;;5.57;100.00;100768.81;4973053;28;20260;-69
2023/10/15 02:33:38;;;;;;;4.80;1.53;;;;;;;5.59;100.00;100764.53;4973461;28;20643;-69
2023/10/15 02:36:09;;;;;;;2.93;1.53;;;;;;;5.51;100.00;100768.59;4973121;28;20257;-69
2023/10/15 02:38:52;;;;;;;3.13;1.83;;;;;;;5.46;100.00;100764.88;4972054;28;20212;-69
2023/10/15 02:41:30;;;;;;;9.60;1.77;;;;;;;5.57;100.00;100760.03;4971714;28;20204;-70
2023/10/15 02:43:57;;;;;;;2.40;1.30;;;;;;;5.51;100.00;100749.31;4972856;28;20214;-69
2023/10/15 02:48:59;;;;;;;3.60;1.40;;;;;;;5.41;100.00;100747.16;4973019;28;20242;-70
2023/10/15 02:51:26;;;;;;;3.37;1.63;;;;;;;5.37;100.00;100756.66;4973864;28;20223;-69
2023/10/15 02:53:55;;;;;;;5.83;1.43;;;;;;;5.29;100.00;100753.72;4973069;28;20209;-69
2023/10/15 02:56:22;;;;;;;3.37;1.60;;;;;;;5.22;100.00;100762.19;4970355;28;20283;-69
2023/10/15 02:58:50;;;;;;;2.77;1.13;;;;;;;5.19;100.00;100766.38;4972492;28;20608;-69
2023/10/15 03:01:19;;;;;;;2.20;1.30;;;;;;;5.19;100.00;100763.75;4971657;28;20203;-69
2023/10/15 03:03:49;;;;;;;2.67;1.53;;;;;;;5.18;100.00;100764.59;4971192;28;20670;-69
2023/10/15 03:06:24;;;;;;;5.70;1.83;;;;;;;5.12;100.00;100748.59;4971317;28;20225;-69
2023/10/15 03:08:51;;;;;;;3.03;1.20;;;;;;;4.95;100.00;100748.81;4972813;28;20560;-69
2023/10/15 03:11:20;;;;;;;1.50;1.30;;;;;;;4.87;100.00;100751.97;4972365;28;20648;-69
2023/10/15 03:14:00;;;;;;;2.27;1.40;;;;;;;4.73;100.00;100743.47;4970262;28;20658;-69
2023/10/15 03:16:35;;;;;;;10.73;1.50;;;;;;;4.62;100.00;100747.38;4965180;28;20600;-69
2023/10/15 03:19:19;;;;;;;4.17;1.67;;;;;;;4.57;100.00;100746.28;4971957;28;20677;-70
2023/10/15 03:21:46;;;;;;;4.67;1.40;;;;;;;4.42;100.00;100749.16;4972440;28;20724;-70
2023/10/15 03:24:14;;;;;;;3.73;1.37;;;;;;;4.30;100.00;100745.97;4969362;28;20201;-70
2023/10/15 03:26:47;;;;;;;2.77;1.10;;;;;;;4.19;100.00;100758.63;4972394;28;20229;-70
2023/10/15 03:29:14;;;;;;;3.07;1.43;;;;;;;4.12;100.00;100748.69;4970853;28;20669;-70
2023/10/15 03:31:47;;;;;;;6.40;1.77;;;;;;;4.06;100.00;100749.31;4965980;28;20253;-70
2023/10/15 03:34:17;;;;;;;2.73;1.53;;;;;;;4.08;100.00;100754.63;4970769;28;20236;-69
2023/10/15 03:36:47;;;;;;;2.23;1.30;;;;;;;4.08;100.00;100758.16;4972375;28;20233;-70
2023/10/15 03:39:15;;;;;;;2.47;1.40;;;;;;;4.18;100.00;100763.81;4970863;28;20406;-69
2023/10/15 03:41:53;;;;;;;1.93;0.90;;;;;;;4.34;100.00;100761.91;4968085;28;20228;-70
2023/10/15 03:44:27;;;;;;;4.20;1.63;;;;;;;4.31;100.00;100756.53;4971057;28;20643;-69
2023/10/15 03:47:03;;;;;;;5.37;1.30;;;;;;;4.26;100.00;100755.44;4972337;28;20240;-70
2023/10/15 03:49:33;;;;;;;4.93;1.97;;;;;;;4.26;100.00;100763.31;4962841;28;20273;-69
2023/10/15 03:51:59;;;;;;;3.23;1.27;;;;;;;4.10;100.00;100755.59;4971672;28;20236;-69
2023/10/15 03:54:26;;;;;;;4.23;1.80;;;;;;;4.04;100.00;100764.09;4971887;28;20206;-69
2023/10/15 03:56:52;;;;;;;2.83;1.40;;;;;;;4.19;100.00;100768.22;4972171;28;20221;-70
2023/10/15 03:59:19;;;;;;;4.10;1.90;;;;;;;4.06;100.00;100765.06;4967576;28;20302;-69
2023/10/15 04:01:49;;;;;;;2.40;1.40;;;;;;;3.97;100.00;100764.59;4971953;28;20284;-70
2023/10/15 04:04:17;;;;;;;2.87;1.30;;;;;;;4.03;100.00;100767.53;4970395;28;20201;-69
2023/10/15 04:07:03;;;;;;;4.07;1.40;;;;;;;3.90;100.00;100756.41;4972178;28;20257;-70
2023/10/15 04:09:33;;;;;;;4.53;1.40;;;;;;;3.78;100.00;100764.59;4964700;28;20212;-71
2023/10/15 04:12:01;;;;;;;6.40;1.50;;;;;;;3.72;100.00;100767.84;4971497;28;20261;-69
2023/10/15 04:14:32;;;;;;;3.57;1.57;;;;;;;3.58;100.00;100771.50;4971525;28;20197;-69
2023/10/15 04:16:59;;;;;;;2.53;1.37;;;;;;;3.48;100.00;100769.28;4971414;28;20349;-70
2023/10/15 04:19:26;;;;;;;4.37;1.43;;;;;;;3.51;100.00;100772.03;4967731;28;20228;-69
2023/10/15 04:21:59;;;;;;;2.17;1.40;;;;;;;3.63;100.00;100771.75;4971326;28;20211;-69
2023/10/15 04:24:41;;;;;;;6.80;1.93;;;;;;;3.71;100.00;100766.03;4971375;28;20629;-69
2023/10/15 04:27:15;;;;;;;2.13;1.30;;;;;;;3.72;100.00;100765.22;4968896;28;20682;-69
2023/10/15 04:29:54;;;;;;;4.43;1.27;;;;;;;3.75;100.00;100764.47;4971150;28;20206;-69
2023/10/15 04:32:45;;;;;;;2.97;1.40;;;;;;;3.85;100.00;100766.66;4969724;28;20621;-69
2023/10/15 04:35:17;;;;;;;2.53;1.30;;;;;;;3.80;100.00;100769.91;4966801;28;20225;-69
2023/10/15 04:37:53;;;;;;;2.87;1.50;;;;;;;3.85;100.00;100771.00;4970294;28;20288;-69
2023/10/15 04:40:23;;;;;;;4.10;1.60;;;;;;;3.92;100.00;100773.09;4969728;28;20197;-69
2023/10/15 04:42:51;;;;;;;4.10;1.50;;;;;;;3.97;100.00;100772.47;4971389;28;20240;-69
2023/10/15 04:45:20;;;;;;;4.17;1.37;;;;;;;3.93;100.00;100772.25;4965202;28;20225;-69
2023/10/15 04:47:52;;;;;;;2.87;2.20;;;;;;;3.77;100.00;100773.28;4971064;28;20212;-69
2023/10/15 04:50:19;;;;;;;3.17;1.70;;;;;;;3.62;100.00;100773.47;4968949;28;20224;-69
2023/10/15 04:52:46;;;;;;;6.37;2.23;;;;;;;3.51;100.00;100765.91;4969858;28;20666;-69
2023/10/15 04:55:13;;;;;;;4.73;2.30;;;;;;;3.42;100.00;100758.53;4970854;28;20217;-69
2023/10/15 04:57:40;;;;;;;4.47;2.40;;;;;;;3.40;100.00;100768.03;4971277;28;20212;-69
2023/10/15 05:00:07;;;;;;;3.87;2.33;;;;;;;3.44;100.00;100767.34;4970605;28;20205;-70
2023/10/15 05:02:34;;;;;;;6.27;2.40;;;;;;;3.50;100.00;100775.50;4970000;28;20297;-69
2023/10/15 05:05:01;;;;;;;8.27;2.83;;;;;;;3.46;100.00;100771.84;4970879;28;20320;-69
2023/10/15 05:07:27;;;;;;;2.27;1.23;;;;;;;3.39;100.00;100771.47;4970807;28;20621;-69
2023/10/15 05:09:54;;;;;;;5.37;1.27;;;;;;;3.32;100.00;100775.53;4970446;28;20625;-69
2023/10/15 05:12:21;;;;;;;4.73;2.27;;;;;;;3.36;100.00;100768.72;4971041;28;20308;-69
2023/10/15 05:14:51;;;;;;;5.40;2.50;;;;;;;3.36;100.00;100776.56;4970391;28;20654;-70
2023/10/15 05:17:17;;;;;;;2.97;1.33;;;;;;;3.56;100.00;100773.16;4968524;28;20557;-69
2023/10/15 05:19:43;;;;;;;3.50;1.73;;;;;;;3.53;100.00;100770.41;4970586;28;20200;-69
2023/10/15 05:22:10;;;;;;;5.17;1.70;;;;;;;3.51;100.00;100774.66;4969261;28;20770;-71
2023/10/15 05:24:36;;;;;;;4.13;1.43;;;;;;;3.45;100.00;100777.91;4970564;28;20288;-69
2023/10/15 05:27:03;;;;;;;5.97;2.33;;;;;;;3.33;100.00;100773.81;4969205;28;20387;-69
2023/10/15 05:29:31;;;;;;;3.07;1.70;;;;;;;3.44;100.00;100776.09;4971019;28;20307;-69
2023/10/15 05:32:00;;;;;;;3.83;1.60;;;;;;;3.60;100.00;100779.44;4973038;28;20225;-69
2023/10/15 05:34:26;;;;;;;3.10;1.20;;;;;;;3.42;100.00;100784.72;4974852;28;20227;-69
2023/10/15 05:36:53;;;;;;;3.20;1.70;;;;;;;3.58;100.00;100783.72;4973672;28;20737;-69
2023/10/15 05:39:20;;;;;;;2.87;1.73;;;;;;;3.62;100.00;100788.28;4971921;28;20295;-69
2023/10/15 05:41:46;;;;;;;4.50;1.77;;;;;;;3.70;100.00;100784.31;4972822;28;20197;-69
2023/10/15 05:44:12;;;;;;;2.77;1.50;;;;;;;3.85;100.00;100795.50;4974418;28;21740;-69
2023/10/15 05:46:39;;;;;;;3.07;1.67;;;;;;;3.77;100.00;100797.75;4970232;28;20229;-69
2023/10/15 05:49:05;;;;;;;4.33;1.97;;;;;;;3.75;100.00;100791.56;4973786;28;20209;-69
2023/10/15 05:51:32;;;;;;;4.60;1.50;;;;;;;3.67;100.00;100789.41;4974106;28;20224;-69
2023/10/15 05:53:59;;;;;;;3.73;2.57;;;;;;;3.60;100.00;100795.16;4972813;28;20205;-69
2023/10/15 05:56:27;;;;;;;3.07;1.43;;;;;;;3.50;100.00;100796.44;4973669;28;20705;-69
2023/10/15 05:58:54;;;;;;;5.60;1.90;;;;;;;3.61;100.00;100803.09;4973823;28;20280;-69
2023/10/15 06:01:20;;;;;;;10.30;2.10;;;;;;;3.78;100.00;100804.78;4973815;28;20198;-69
2023/10/15 06:03:46;;;;;;;5.93;1.83;;;;;;;4.01;100.00;100808.50;4971219;28;20201;-69
2023/10/15 06:06:13;;;;;;;2.33;1.40;;;;;;;4.00;100.00;100800.53;4973384;28;21187;-69
2023/10/15 06:08:39;;;;;;;3.53;2.17;;;;;;;4.06;100.00;100806.09;4973910;28;20296;-69
2023/10/15 06:11:06;;;;;;;3.27;1.83;;;;;;;4.13;100.00;100796.78;4969641;28;20218;-69
2023/10/15 06:13:33;;;;;;;3.83;2.00;;;;;;;4.24;100.00;100796.41;4979075;28;20297;-69
2023/10/15 06:16:00;;;;;;;2.93;1.77;;;;;;;4.33;100.00;100806.41;4973365;28;20232;-70
2023/10/15 06:18:27;;;;;;;3.80;1.70;;;;;;;4.43;100.00;100805.13;4973455;28;20229;-69
2023/10/15 06:20:54;;;;;;;5.17;1.90;;;;;;;4.61;100.00;100812.06;4971474;28;20197;-69
2023/10/15 06:23:20;;;;;;;4.20;1.70;;;;;;;4.74;100.00;100813.50;4970914;28;20228;-69
2023/10/15 06:25:47;;;;;;;5.73;1.97;;;;;;;4.88;100.00;100820.25;4973513;28;20646;-69
2023/10/15 06:28:16;;;;;;;8.13;2.23;;;;;;;5.01;100.00;100814.69;4967809;28;20297;-69
2023/10/15 06:30:44;;;;;;;6.93;2.00;;;;;;;5.05;100.00;100818.31;4967056;28;20308;-69
2023/10/15 06:33:11;;;;;;;4.20;2.17;;;;;;;5.16;100.00;100819.66;4973371;28;20217;-70
2023/10/15 06:35:40;;;;;;;4.83;2.30;;;;;;;5.32;100.00;100818.59;4968637;28;20294;-69
2023/10/15 06:38:06;;;;;;;4.50;2.30;;;;;;;5.39;100.00;100811.84;4973069;28;20284;-69
2023/10/15 06:40:33;;;;;;;6.20;2.50;;;;;;;5.49;100.00;100820.16;4970665;28;20249;-69
2023/10/15 06:43:02;;;;;;;4.87;2.37;;;;;;;5.54;100.00;100821.25;4973578;28;20264;-70
2023/10/15 06:45:29;;;;;;;4.83;2.50;;;;;;;5.63;100.00;100821.63;4971185;28;20226;-69
2023/10/15 06:47:56;;;;;;;3.30;2.20;;;;;;;5.73;100.00;100817.63;4973130;28;20231;-69
2023/10/15 06:50:23;;;;;;;5.57;2.13;;;;;;;5.80;100.00;100827.53;4973122;28;20202;-70
2023/10/15 06:52:52;;;;;;;3.70;2.00;;;;;;;5.85;100.00;100826.00;4972146;28;20230;-70
2023/10/15 06:55:20;;;;;;;7.67;2.53;;;;;;;6.05;100.00;100839.06;4972676;28;20598;-69
2023/10/15 06:57:47;;;;;;;6.60;2.63;;;;;;;6.15;100.00;100844.72;4972819;28;20211;-70
2023/10/15 07:00:23;;;;;;;9.00;3.60;;;;;;;6.27;100.00;100845.19;4972881;28;20197;-69
2023/10/15 07:02:51;;;;;;;13.53;5.23;;;;;;;6.40;100.00;100840.38;4969668;28;20207;-69
2023/10/15 07:05:23;;;;;;;6.73;3.40;;;;;;;6.43;100.00;100841.41;4972692;28;20293;-70
2023/10/15 07:07:49;;;;;;;7.33;3.20;;;;;;;6.53;100.00;100838.28;4969309;28;20243;-70
2023/10/15 07:10:17;;;;;;;6.30;2.77;;;;;;;6.56;100.00;100846.28;4969104;28;20296;-69
2023/10/15 07:12:54;;;;;;;5.00;2.83;;;;;;;6.64;100.00;100836.03;4976142;28;20687;-70
2023/10/15 07:15:20;;;;;;;6.93;3.00;;;;;;;6.76;100.00;100825.94;4969345;28;20231;-70
2023/10/15 07:17:49;;;;;;;4.97;2.87;;;;;;;6.83;100.00;100835.88;4969612;28;20210;-70
2023/10/15 07:20:21;;;;;;;4.87;2.43;;;;;;;6.90;100.00;100826.44;4971953;28;20268;-70
2023/10/15 07:22:49;;;;;;;6.83;2.80;;;;;;;6.93;100.00;100825.66;4971545;28;20197;-70
2023/10/15 07:25:20;;;;;;;5.90;2.40;;;;;;;6.94;100.00;100830.97;4972577;28;20236;-70
2023/10/15 07:27:48;;;;;;;8.83;2.63;;;;;;;6.88;100.00;100825.50;4970775;28;20289;-70
2023/10/15 07:30:17;;;;;;;5.27;2.50;;;;;;;6.96;100.00;100829.28;4970943;28;20571;-70
2023/10/15 07:32:46;;;;;;;6.93;2.60;;;;;;;7.01;100.00;100825.06;4972357;28;20704;-70
2023/10/15 07:35:14;;;;;;;4.40;2.03;;;;;;;7.16;100.00;100838.75;4971924;28;20309;-70
2023/10/15 07:37:43;;;;;;;5.03;2.27;;;;;;;7.39;100.00;100836.00;4968767;28;20581;-70
2023/10/15 07:40:18;;;;;;;5.87;2.43;;;;;;;7.64;100.00;100835.97;4971700;28;20216;-70
2023/10/15 07:42:48;;;;;;;5.33;2.37;;;;;;;7.81;100.00;100844.41;4972148;28;20294;-70
2023/10/15 07:45:16;;;;;;;3.10;1.97;;;;;;;8.00;100.00;100843.22;4969065;28;20227;-70
2023/10/15 07:47:42;;;;;;;5.30;2.10;;;;;;;8.15;100.00;100839.34;4971968;28;20220;-70
2023/10/15 07:50:23;;;;;;;8.90;2.43;;;;;;;8.29;100.00;100841.47;4967068;28;20306;-69
2023/10/15 07:52:51;;;;;;;5.03;2.17;;;;;;;8.48;100.00;100847.41;4970141;28;20646;-70
2023/10/15 07:55:18;;;;;;;9.00;2.60;;;;;;;8.63;100.00;100841.66;4971674;28;20496;-70
2023/10/15 07:57:46;;;;;;;6.97;2.30;;;;;;;8.70;100.00;100843.59;4970635;28;20209;-70
2023/10/15 08:00:15;;;;;;;3.43;1.87;;;;;;;8.86;100.00;100846.69;4971391;28;20217;-69
2023/10/15 08:02:45;;;;;;;3.03;1.83;;;;;;;8.88;100.00;100852.91;4968792;28;20208;-70
2023/10/15 08:05:12;;;;;;;2.87;1.80;;;;;;;8.76;100.00;100858.72;4971464;28;20248;-70
2023/10/15 08:07:41;;;;;;;4.80;1.93;;;;;;;8.55;100.00;100851.09;4971439;28;20566;-70
2023/10/15 08:10:09;;;;;;;3.43;2.00;;;;;;;8.44;100.00;100856.06;4968320;28;20201;-70
2023/10/15 08:12:36;;;;;;;2.43;1.70;;;;;;;8.35;100.00;100855.78;4974088;28;20808;-70
2023/10/15 08:15:03;;;;;;;5.73;2.10;;;;;;;8.28;100.00;100859.06;4971140;28;20246;-70
2023/10/15 08:17:31;;;;;;;4.40;2.10;;;;;;;8.20;100.00;100863.22;4968005;28;20776;-70
2023/10/15 08:19:58;;;;;;;4.13;1.73;;;;;;;8.08;100.00;100863.75;4971315;28;20228;-70
2023/10/15 08:22:28;;;;;;;3.90;2.03;;;;;;;8.07;100.00;100869.88;4971525;28;20200;-70
2023/10/15 08:24:57;;;;;;;4.30;2.00;;;;;;;8.14;100.00;100863.94;4964885;28;21946;-70
2023/10/15 08:27:23;;;;;;;7.60;2.20;;;;;;;8.32;100.00;100862.69;4967616;28;20205;-70
2023/10/15 08:29:49;;;;;;;5.37;2.00;;;;;;;8.45;100.00;100873.69;4967190;28;20213;-70
2023/10/15 08:32:20;;;;;;;4.90;2.20;;;;;;;8.61;100.00;100867.13;4969947;28;20300;-70
2023/10/15 08:34:47;;;;;;;2.83;1.90;;;;;;;8.75;100.00;100863.09;4967730;28;20626;-70
2023/10/15 08:37:16;;;;;;;6.87;2.30;;;;;;;8.96;100.00;100875.13;4969713;28;20206;-70
2023/10/15 08:39:43;;;;;;;5.37;2.00;;;;;;;9.17;100.00;100870.41;4970777;28;20301;-69
2023/10/15 08:42:13;;;;;;;2.67;1.53;;;;;;;9.49;100.00;100870.38;4969289;28;20209;-69
2023/10/15 08:44:40;;;;;;;3.27;1.60;;;;;;;9.91;100.00;100875.81;4970726;28;20245;-70
2023/10/15 08:47:10;;;;;;;4.80;1.87;;;;;;;10.09;100.00;100878.03;4971152;28;20208;-70
2023/10/15 08:49:44;;;;;;;5.50;1.73;;;;;;;10.30;100.00;100891.75;4971132;28;20204;-70
2023/10/15 08:52:11;;;;;;;3.40;1.77;;;;;;;10.38;100.00;100882.22;4966984;28;20638;-70
2023/10/15 08:54:39;;;;;;;5.33;1.70;;;;;;;10.49;100.00;100891.31;4970502;28;20589;-70
2023/10/15 08:57:08;;;;;;;3.50;1.50;;;;;;;10.52;100.00;100885.19;4968693;28;20231;-69
2023/10/15 08:59:35;;;;;;;9.97;1.80;;;;;;;10.52;100.00;100886.09;4964028;28;20727;-70
2023/10/15 09:02:06;;;;;;;2.20;1.23;;;;;;;10.60;96.11;100895.09;4969852;28;20731;-70
2023/10/15 09:04:33;;;;;;;3.23;1.50;;;;;;;10.58;93.71;100888.88;4970635;28;20216;-70
2023/10/15 09:07:03;;;;;;;1.57;1.20;;;;;;;10.46;90.83;100896.56;4970277;28;20741;-70
2023/10/15 09:09:32;;;;;;;3.17;1.50;;;;;;;10.34;90.45;100896.25;4967562;28;20211;-70
2023/10/15 09:11:59;;;;;;;2.07;1.10;;;;;;;10.28;88.04;100890.84;4974150;28;20230;-69
2023/10/15 09:14:43;;;;;;;2.30;1.30;;;;;;;10.20;85.80;100900.31;4966387;28;20207;-69
2023/10/15 09:17:15;;;;;;;2.40;1.10;;;;;;;10.30;86.79;100895.31;4967085;28;20204;-70
2023/10/15 09:19:43;;;;;;;4.30;0.93;;;;;;;10.41;83.31;100897.31;4967984;28;20214;-69
2023/10/15 09:22:17;;;;;;;1.50;1.10;;;;;;;10.52;77.90;100896.69;4969279;28;20198;-69
2023/10/15 09:24:44;;;;;;;3.00;1.10;;;;;;;10.76;74.71;100879.50;4970554;28;20214;-69
2023/10/15 09:27:13;;;;;;;2.60;1.40;;;;;;;10.92;73.79;100889.56;4968603;28;20303;-69
2023/10/15 09:29:41;;;;;;;3.63;1.53;;;;;;;11.19;71.65;100889.19;4970899;28;20311;-70
2023/10/15 09:32:08;;;;;;;4.73;1.30;;;;;;;11.63;70.85;100900.63;4970193;28;20697;-69
2023/10/15 09:34:38;;;;;;;2.73;1.10;;;;;;;11.68;68.60;100896.28;4967234;28;20214;-70
2023/10/15 09:37:06;;;;;;;2.77;1.17;;;;;;;11.71;69.04;100893.69;4967887;28;20214;-69
2023/10/15 09:39:34;;;;;;;2.43;1.10;;;;;;;11.77;69.53;100901.75;4970363;28;20305;-69
2023/10/15 09:42:03;;;;;;;2.57;1.10;;;;;;;11.68;69.73;100904.25;4965807;28;20203;-70
2023/10/15 09:44:32;;;;;;;1.10;0.77;;;;;;;11.60;67.20;100913.81;4969039;28;20208;-69
2023/10/15 09:47:02;;;;;;;1.33;1.00;;;;;;;11.43;68.41;100908.22;5007135;23;20315;-71
2023/10/15 09:49:31;;;;;;;1.87;1.00;;;;;;;11.36;68.62;100908.09;4981448;28;20202;-68
2023/10/15 09:52:05;;;;;;;1.00;0.90;;;;;;;11.37;68.73;100908.13;4979004;28;20228;-68
2023/10/15 09:54:33;;;;;;;1.60;0.80;;;;;;;11.47;67.85;100909.16;4982974;28;20264;-70
2023/10/15 09:57:01;;;;;;;2.80;1.00;;;;;;;11.46;66.55;100913.56;4979080;28;20234;-70
2023/10/15 09:59:29;;;;;;;0.90;0.80;;;;;;;12.05;66.38;100907.53;4983078;28;20201;-71
2023/10/15 10:01:58;;;;;;;2.80;1.10;;;;;;;12.51;63.25;100906.44;4981540;28;20205;-73
2023/10/15 10:04:57;;;;;;;1.57;1.10;;;;;;;12.90;60.61;100900.75;4981256;28;20657;-80
2023/10/15 10:07:32;;;;;;;2.10;0.90;;;;;;;12.79;62.37;100913.91;4986933;28;20624;-80
2023/10/15 10:10:21;;;;;;;2.00;0.90;;;;;;;12.83;61.16;100926.38;4981276;28;20214;-77
2023/10/15 10:13:19;;;;;;;2.60;1.00;;;;;;;13.01;60.70;100916.84;4987432;28;20238;-79
2023/10/15 10:15:54;;;;;;;1.20;0.73;;;;;;;13.15;59.95;100912.56;4983869;28;20238;-78
2023/10/15 10:18:21;;;;;;;1.50;0.97;;;;;;;13.41;59.31;100921.75;4984147;28;21750;-80
2023/10/15 10:20:48;;;;;;;4.23;0.90;;;;;;;13.57;57.64;100920.13;4993142;28;20214;-74
2023/10/15 10:23:16;;;;;;;1.67;0.90;;;;;;;13.51;58.03;100920.06;4991532;28;20836;-71
2023/10/15 10:25:45;;;;;;;1.43;0.90;;;;;;;13.40;57.89;100917.31;4963297;28;20248;-75
2023/10/15 10:28:14;;;;;;;2.43;0.80;;;;;;;12.73;59.43;100921.78;4990933;28;20201;-72
2023/10/15 10:30:55;;;;;;;1.83;0.80;;;;;;;12.75;59.59;100916.50;4987256;28;20212;-75
2023/10/15 10:33:44;;;;;;;2.33;0.80;;;;;;;12.99;59.20;100911.50;4989658;28;20217;-74
2023/10/15 10:36:27;;;;;;;4.00;0.80;;;;;;;12.93;58.74;100926.50;4990343;28;20255;-75
2023/10/15 10:39:00;;;;;;;1.90;0.70;;;;;;;13.01;57.52;100911.53;4992787;28;20693;-76
2023/10/15 10:41:38;;;;;;;1.37;0.77;;;;;;;13.38;56.81;100910.19;4986489;28;20285;-76
2023/10/15 10:44:23;;;;;;;1.17;0.77;;;;;;;13.53;55.76;100909.44;4993053;28;20243;-73
2023/10/15 10:46:56;;;;;;;2.13;0.97;;;;;;;13.96;54.42;100921.38;4992656;28;20716;-72
2023/10/15 10:49:39;;;;;;;1.47;0.70;;;;;;;14.35;52.62;100910.09;4992313;28;20251;-71
2023/10/15 10:52:15;;;;;;;0.97;0.77;;;;;;;14.30;51.80;100906.53;4986327;28;20220;-70
2023/10/15 10:54:42;;;;;;;1.47;0.60;;;;;;;13.55;53.25;100905.91;4987279;28;20208;-73
2023/10/15 10:57:09;;;;;;;1.80;0.80;;;;;;;13.55;53.39;100902.38;4989785;28;20251;-71
2023/10/15 10:59:38;;;;;;;4.13;1.27;;;;;;;13.90;52.09;100906.22;4983004;28;20211;-70
2023/10/15 11:02:06;;;;;;;1.67;0.97;;;;;;;14.37;50.77;100900.34;4990070;28;20204;-74
2023/10/15 11:04:33;;;;;;;2.53;1.20;;;;;;;14.68;51.04;100898.78;4984844;28;20211;-74
2023/10/15 11:07:00;;;;;;;1.73;1.53;;;;;;;15.40;49.78;100893.69;4992306;28;20231;-70
2023/10/15 11:09:28;;;;;;;1.33;0.70;;;;;;;15.07;47.55;100902.50;4989020;28;20202;-71
2023/10/15 11:11:56;;;;;;;2.37;0.70;;;;;;;14.91;46.71;100904.22;4979986;28;20200;-73
2023/10/15 11:14:24;;;;;;;1.83;1.00;;;;;;;14.32;47.45;100903.00;4981507;28;20205;-71
2023/10/15 11:16:52;;;;;;;4.90;0.70;;;;;;;14.39;48.14;100917.22;4987004;28;20228;-69
2023/10/15 11:19:20;;;;;;;1.30;0.70;;;;;;;14.02;49.57;100916.13;4990734;28;20233;-71
2023/10/15 11:21:51;;;;;;;1.30;0.70;;;;;;;13.37;51.78;100927.94;4992252;28;20397;-71
2023/10/15 11:24:20;;;;;;;0.77;0.53;;;;;;;12.64;58.69;100958.88;4992594;28;20687;-71
2023/10/15 11:26:46;;;;;;;2.50;0.70;;;;;;;10.67;80.88;100999.41;4992306;28;20620;-77
2023/10/15 11:29:20;;;;;;;1.77;1.00;;;;;;;8.87;100.00;101001.66;4990555;28;20249;-70
2023/10/15 11:31:48;;;;;;;0.77;0.67;;;;;;;8.10;100.00;101008.88;4993015;28;20259;-73
2023/10/15 11:34:20;;;;;;;2.53;0.90;;;;;;;7.54;100.00;101007.81;4982430;28;20224;-71
2023/10/15 11:36:50;;;;;;;1.57;0.60;;;;;;;7.35;100.00;101005.38;4982886;28;20226;-75
2023/10/15 11:39:18;;;;;;;2.53;0.80;;;;;;;7.25;100.00;101004.16;4973771;28;20562;-75
2023/10/15 11:41:50;;;;;;;0.93;0.80;;;;;;;7.40;100.00;101011.69;4991604;28;20234;-74
2023/10/15 11:44:18;;;;;;;1.30;0.80;;;;;;;7.64;100.00;101003.78;4980447;28;20487;-73
2023/10/15 11:46:46;;;;;;;1.77;0.77;;;;;;;7.78;100.00;101015.69;4984208;28;20233;-71
2023/10/15 11:49:13;;;;;;;1.20;0.60;;;;;;;7.66;100.00;100999.47;4990342;28;20269;-72
2023/10/15 11:51:40;;;;;;;0.60;0.60;;;;;;;7.73;100.00;101004.09;4972509;28;20215;-70
2023/10/15 11:54:09;;;;;;;1.90;0.60;;;;;;;7.81;100.00;100989.44;4987868;28;20222;-69